Time;durP1;ratioP1;P1;durP2;ratioP2;P2;SDS_P1;SDS_P2;PMS_P1;PMS_P2;Temp;Humidity;BMP_temperature;BMP_pressure;BME280_temperature;BME280_humidity;BME280_pressure;Samples;Min_cycle;Max_cycle;Signal;HPM_P1;HPM_P2
2022/02/24 00:02:25;;;;;;;14.60;4.60;;;10.60;99.90;;;;;;5083581;28;20189;-87
2022/02/24 00:04:52;;;;;;;17.90;8.73;;;10.50;99.90;;;;;;5093116;28;20166;-87
2022/02/24 00:07:21;;;;;;;16.47;3.80;;;10.50;99.90;;;;;;5093045;28;20218;-87
2022/02/24 00:09:46;;;;;;;13.77;4.77;;;10.60;99.90;;;;;;5092837;28;20186;-87
2022/02/24 00:12:13;;;;;;;12.97;3.90;;;10.60;99.90;;;;;;5093088;28;20640;-87
2022/02/24 00:14:41;;;;;;;10.07;3.57;;;10.70;99.90;;;;;;5093112;28;20630;-87
2022/02/24 00:17:09;;;;;;;14.47;3.57;;;10.70;99.90;;;;;;5092601;28;20587;-87
2022/02/24 00:19:35;;;;;;;11.13;3.63;;;10.60;99.90;;;;;;5092741;28;20181;-87
2022/02/24 00:22:02;;;;;;;14.63;4.03;;;10.50;99.90;;;;;;5092872;28;20171;-86
2022/02/24 00:24:31;;;;;;;17.17;4.90;;;10.60;99.90;;;;;;5086966;28;20181;-87
2022/02/24 00:27:00;;;;;;;16.33;4.57;;;10.60;99.90;;;;;;5072624;28;20219;-87
2022/02/24 00:29:27;;;;;;;17.83;4.20;;;10.80;99.90;;;;;;5072536;28;20172;-87
2022/02/24 00:31:56;;;;;;;15.43;4.30;;;10.80;99.90;;;;;;5072871;28;20194;-87
2022/02/24 00:34:28;;;;;;;10.83;3.73;;;10.80;99.90;;;;;;5082744;28;20166;-87
2022/02/24 00:36:54;;;;;;;12.07;4.00;;;10.80;99.90;;;;;;5096867;28;20217;-87
2022/02/24 00:39:23;;;;;;;13.17;4.87;;;10.80;99.90;;;;;;5097202;28;20641;-87
2022/02/24 00:41:49;;;;;;;10.63;3.77;;;10.80;99.90;;;;;;5097133;28;20166;-86
2022/02/24 00:44:16;;;;;;;15.80;3.63;;;10.80;99.90;;;;;;5096052;28;20158;-87
2022/02/24 00:46:42;;;;;;;11.70;4.07;;;10.90;99.90;;;;;;5095871;28;20193;-87
2022/02/24 00:49:09;;;;;;;12.07;3.87;;;10.80;99.90;;;;;;5096724;28;20517;-86
2022/02/24 00:51:38;;;;;;;11.33;3.70;;;10.70;99.90;;;;;;5095954;28;20181;-87
2022/02/24 00:54:07;;;;;;;14.17;5.20;;;10.70;99.90;;;;;;5095820;28;20428;-87
2022/02/24 00:56:34;;;;;;;16.07;3.93;;;10.70;99.90;;;;;;5095932;28;20214;-87
2022/02/24 00:58:59;;;;;;;13.40;3.70;;;10.80;99.90;;;;;;5096203;28;20170;-87
2022/02/24 01:01:25;;;;;;;15.57;4.40;;;10.60;99.90;;;;;;5096802;28;20177;-87
2022/02/24 01:03:52;;;;;;;11.77;4.00;;;10.60;99.90;;;;;;5096771;28;20629;-88
2022/02/24 01:06:18;;;;;;;16.13;3.90;;;10.60;99.90;;;;;;5096809;28;20166;-87
2022/02/24 01:08:45;;;;;;;17.27;4.07;;;10.60;99.90;;;;;;5096515;28;20201;-87
2022/02/24 01:11:13;;;;;;;10.70;3.53;;;10.50;99.90;;;;;;5096365;28;20267;-87
2022/02/24 01:13:39;;;;;;;17.43;3.87;;;10.40;99.90;;;;;;5096043;28;20171;-87
2022/02/24 01:16:05;;;;;;;9.53;4.17;;;10.40;99.90;;;;;;5095953;28;20202;-86
2022/02/24 01:18:34;;;;;;;13.60;4.17;;;10.30;99.90;;;;;;5095526;28;20179;-87
2022/02/24 01:21:03;;;;;;;12.17;4.00;;;10.30;99.90;;;;;;5076167;28;20190;-87
2022/02/24 01:23:29;;;;;;;10.83;3.10;;;10.30;99.90;;;;;;5075938;28;20285;-87
2022/02/24 01:25:57;;;;;;;9.30;3.40;;;10.20;99.90;;;;;;5075911;28;20627;-87
2022/02/24 01:28:24;;;;;;;9.20;3.07;;;10.20;99.90;;;;;;5082775;28;20208;-87
2022/02/24 01:30:53;;;;;;;14.03;3.03;;;10.10;99.90;;;;;;5096135;28;20201;-87
2022/02/24 01:33:21;;;;;;;14.40;3.10;;;10.00;99.90;;;;;;5096363;28;20521;-87
2022/02/24 01:35:53;;;;;;;13.37;2.93;;;10.10;99.90;;;;;;5095983;28;20384;-85
2022/02/24 01:38:19;;;;;;;15.10;3.73;;;10.20;99.90;;;;;;5096132;28;20201;-86
2022/02/24 01:40:45;;;;;;;12.33;2.57;;;10.30;99.90;;;;;;5095892;28;20198;-87
2022/02/24 01:43:10;;;;;;;13.63;3.33;;;10.30;99.90;;;;;;5096253;28;20178;-86
2022/02/24 01:45:39;;;;;;;8.97;2.90;;;10.40;99.90;;;;;;5076519;28;20178;-86
2022/02/24 01:48:05;;;;;;;13.27;3.37;;;10.40;99.90;;;;;;5083625;28;20174;-86
2022/02/24 01:50:33;;;;;;;12.20;3.93;;;10.30;99.90;;;;;;5095623;28;20176;-86
2022/02/24 01:53:00;;;;;;;14.30;4.20;;;10.20;99.90;;;;;;5095496;28;20176;-86
2022/02/24 01:55:26;;;;;;;15.20;3.97;;;10.20;99.90;;;;;;5095377;28;20199;-86
2022/02/24 01:57:58;;;;;;;14.17;4.00;;;10.20;99.90;;;;;;5095271;28;20227;-86
2022/02/24 02:00:27;;;;;;;16.27;3.43;;;10.20;99.90;;;;;;5095301;28;20229;-86
2022/02/24 02:02:52;;;;;;;9.37;4.03;;;10.10;99.90;;;;;;5095441;28;20260;-86
2022/02/24 02:05:19;;;;;;;11.43;3.40;;;10.20;99.90;;;;;;5095446;28;20273;-86
2022/02/24 02:07:48;;;;;;;12.93;3.47;;;10.20;99.90;;;;;;5095048;28;20194;-86
2022/02/24 02:10:13;;;;;;;12.17;3.30;;;10.10;99.90;;;;;;5095251;28;20194;-87
2022/02/24 02:12:53;;;;;;;14.90;2.90;;;10.20;99.90;;;;;;5094780;28;20262;-86
2022/02/24 02:15:20;;;;;;;16.03;3.50;;;10.30;99.90;;;;;;5081860;28;20205;-86
2022/02/24 02:17:49;;;;;;;15.80;3.00;;;10.40;99.90;;;;;;5074884;28;20616;-87
2022/02/24 02:20:15;;;;;;;12.07;3.07;;;10.40;99.90;;;;;;5074747;28;20175;-86
2022/02/24 02:22:42;;;;;;;11.50;3.00;;;10.30;99.90;;;;;;5083970;28;20177;-87
2022/02/24 02:25:11;;;;;;;12.20;3.77;;;10.30;99.90;;;;;;5094909;28;20162;-87
2022/02/24 02:27:39;;;;;;;11.97;3.37;;;10.20;99.90;;;;;;5094480;28;20264;-87
2022/02/24 02:30:07;;;;;;;11.47;2.70;;;10.30;99.90;;;;;;5094795;28;20170;-87
2022/02/24 02:32:35;;;;;;;10.73;3.53;;;10.20;99.90;;;;;;5094719;28;20162;-87
2022/02/24 02:35:02;;;;;;;11.93;3.60;;;10.20;99.90;;;;;;5094617;28;20272;-87
2022/02/24 02:37:29;;;;;;;12.50;2.77;;;10.30;99.90;;;;;;5095028;28;20287;-87
2022/02/24 02:39:56;;;;;;;13.87;2.77;;;10.20;99.90;;;;;;5094491;28;20175;-87
2022/02/24 02:42:21;;;;;;;14.27;4.00;;;10.30;99.90;;;;;;5074811;28;20253;-87
2022/02/24 02:44:50;;;;;;;9.13;2.80;;;10.20;99.90;;;;;;5074450;28;20194;-87
2022/02/24 02:47:16;;;;;;;17.13;3.20;;;10.20;99.90;;;;;;5075238;28;20152;-86
2022/02/24 02:49:42;;;;;;;16.60;3.23;;;10.30;99.90;;;;;;5074069;28;20221;-87
2022/02/24 02:52:08;;;;;;;10.93;3.40;;;10.10;99.90;;;;;;5091063;28;20629;-87
2022/02/24 02:54:34;;;;;;;14.23;2.90;;;10.10;99.90;;;;;;5094281;28;20173;-87
2022/02/24 02:57:02;;;;;;;12.43;3.10;;;10.10;99.90;;;;;;5094058;28;20269;-87
2022/02/24 02:59:30;;;;;;;10.73;3.10;;;10.10;99.90;;;;;;5094340;28;20177;-87
2022/02/24 03:01:57;;;;;;;16.27;3.10;;;10.20;99.90;;;;;;5084325;28;20172;-87
2022/02/24 03:04:30;;;;;;;12.57;4.13;;;10.10;99.90;;;;;;5073934;28;20177;-87
2022/02/24 03:06:56;;;;;;;14.47;3.40;;;10.10;99.90;;;;;;5073690;28;20175;-86
2022/02/24 03:09:24;;;;;;;15.30;3.60;;;10.10;99.90;;;;;;5073487;28;20168;-87
2022/02/24 03:11:52;;;;;;;12.10;3.13;;;10.20;99.90;;;;;;5087077;28;20200;-87
2022/02/24 03:14:21;;;;;;;13.87;3.27;;;10.10;99.90;;;;;;5093862;28;20160;-87
2022/02/24 03:16:49;;;;;;;8.13;2.87;;;10.10;99.90;;;;;;5093791;28;20239;-87
2022/02/24 03:19:18;;;;;;;16.03;3.20;;;10.10;99.90;;;;;;5093712;28;20166;-87
2022/02/24 03:21:44;;;;;;;9.07;3.40;;;10.10;99.90;;;;;;5081349;28;20226;-87
2022/02/24 03:24:11;;;;;;;11.90;3.30;;;10.20;99.90;;;;;;5073440;28;20163;-87
2022/02/24 03:26:39;;;;;;;13.83;3.23;;;10.10;99.90;;;;;;5073593;28;20170;-87
2022/02/24 03:29:07;;;;;;;15.60;3.23;;;9.90;99.90;;;;;;5073548;28;20199;-86
2022/02/24 03:31:34;;;;;;;17.60;2.77;;;9.70;99.90;;;;;;5073428;28;20180;-87
2022/02/24 03:34:05;;;;;;;16.63;2.97;;;9.70;99.90;;;;;;5073341;28;20172;-87
2022/02/24 03:36:33;;;;;;;16.67;3.33;;;9.70;99.90;;;;;;5073365;28;20199;-86
2022/02/24 03:38:59;;;;;;;13.73;2.90;;;9.70;99.90;;;;;;5073012;28;20168;-87
2022/02/24 03:41:25;;;;;;;10.80;3.37;;;9.70;99.90;;;;;;5073393;28;20162;-87
2022/02/24 03:43:53;;;;;;;15.47;3.60;;;9.60;99.90;;;;;;5073217;28;20171;-87
2022/02/24 03:46:21;;;;;;;8.07;2.53;;;9.70;99.90;;;;;;5072870;28;20170;-87
2022/02/24 03:48:50;;;;;;;10.17;4.10;;;9.80;99.90;;;;;;5073220;28;20163;-87
2022/02/24 03:51:19;;;;;;;13.77;3.23;;;9.80;99.90;;;;;;5073161;28;20157;-87
2022/02/24 03:53:44;;;;;;;10.87;2.97;;;9.70;99.90;;;;;;5072999;28;20258;-87
2022/02/24 03:56:11;;;;;;;10.53;2.83;;;9.70;99.90;;;;;;5072908;28;20280;-87
2022/02/24 03:58:37;;;;;;;7.97;2.77;;;9.50;99.90;;;;;;5073222;28;20208;-86
2022/02/24 04:01:03;;;;;;;13.27;3.53;;;9.50;99.90;;;;;;5073472;28;20160;-87
2022/02/24 04:03:35;;;;;;;12.37;2.97;;;9.40;99.90;;;;;;5072997;28;20155;-87
2022/02/24 04:06:01;;;;;;;9.57;2.60;;;9.40;99.90;;;;;;5072822;28;20160;-87
2022/02/24 04:08:29;;;;;;;8.67;2.70;;;9.40;99.90;;;;;;5072006;28;20201;-86
2022/02/24 04:10:55;;;;;;;14.23;3.10;;;9.20;99.90;;;;;;5073870;28;20195;-87
2022/02/24 04:13:22;;;;;;;8.63;3.20;;;9.20;99.90;;;;;;5072696;28;20177;-87
2022/02/24 04:15:48;;;;;;;10.30;3.00;;;9.20;99.90;;;;;;5075270;28;20205;-87
2022/02/24 04:18:16;;;;;;;7.90;2.40;;;9.10;99.90;;;;;;5093001;28;20177;-87
2022/02/24 04:20:46;;;;;;;13.63;2.97;;;9.20;99.90;;;;;;5092921;28;20218;-87
2022/02/24 04:23:16;;;;;;;9.83;2.37;;;9.20;99.90;;;;;;5092796;28;20217;-87
2022/02/24 04:25:44;;;;;;;10.50;3.67;;;9.30;99.90;;;;;;5082740;28;20174;-87
2022/02/24 04:28:11;;;;;;;7.20;2.80;;;9.40;99.90;;;;;;5072708;28;20185;-86
2022/02/24 04:30:41;;;;;;;10.60;2.77;;;9.40;99.90;;;;;;5072543;28;20242;-86
2022/02/24 04:33:07;;;;;;;10.93;3.13;;;9.40;99.90;;;;;;5072693;28;20181;-86
2022/02/24 04:35:35;;;;;;;8.17;3.43;;;9.30;99.90;;;;;;5076981;28;20196;-87
2022/02/24 04:38:02;;;;;;;10.63;2.90;;;9.30;99.90;;;;;;5092640;28;20197;-87
2022/02/24 04:40:29;;;;;;;11.17;2.73;;;9.40;99.90;;;;;;5092942;28;20167;-87
2022/02/24 04:42:55;;;;;;;13.43;7.80;;;9.60;99.90;;;;;;5092993;28;20218;-87
2022/02/24 04:45:25;;;;;;;9.63;2.80;;;9.60;99.90;;;;;;5093742;28;20158;-86
2022/02/24 04:47:50;;;;;;;8.27;2.47;;;9.50;99.90;;;;;;5092556;28;20185;-87
2022/02/24 04:50:16;;;;;;;8.70;4.73;;;9.40;99.90;;;;;;5083787;28;20178;-86
2022/02/24 04:52:43;;;;;;;10.70;2.40;;;9.50;99.90;;;;;;5072474;28;20168;-87
2022/02/24 04:55:11;;;;;;;8.60;1.93;;;9.40;99.90;;;;;;5076912;28;20516;-86
2022/02/24 04:57:37;;;;;;;8.87;3.00;;;9.30;99.90;;;;;;5092856;28;20175;-86
2022/02/24 05:00:05;;;;;;;9.70;4.03;;;9.30;99.90;;;;;;5092572;28;20247;-87
2022/02/24 05:02:31;;;;;;;9.57;4.60;;;9.40;99.90;;;;;;5092443;28;20216;-87
2022/02/24 05:04:59;;;;;;;8.47;1.80;;;9.40;99.90;;;;;;5080525;28;20169;-86
2022/02/24 05:07:28;;;;;;;8.20;2.40;;;9.30;99.90;;;;;;5072311;28;20659;-87
2022/02/24 05:09:58;;;;;;;7.97;2.33;;;9.20;99.90;;;;;;5072288;28;20168;-87
2022/02/24 05:12:26;;;;;;;9.87;2.43;;;9.10;99.90;;;;;;5072178;28;20202;-86
2022/02/24 05:14:53;;;;;;;9.37;2.47;;;9.00;99.90;;;;;;5073267;28;20178;-87
2022/02/24 05:17:18;;;;;;;7.87;2.87;;;8.90;99.90;;;;;;5072140;28;20250;-86
2022/02/24 05:19:45;;;;;;;11.07;2.97;;;9.00;99.90;;;;;;5073688;28;20204;-87
2022/02/24 05:22:11;;;;;;;15.73;3.10;;;9.00;99.90;;;;;;5075890;28;20520;-87
2022/02/24 05:24:37;;;;;;;14.90;2.60;;;9.10;99.90;;;;;;5075863;28;20171;-87
2022/02/24 05:27:04;;;;;;;14.13;2.50;;;9.10;99.90;;;;;;5075729;28;20174;-86
2022/02/24 05:29:30;;;;;;;8.60;2.73;;;9.00;99.90;;;;;;5075889;28;20858;-86
2022/02/24 05:31:56;;;;;;;6.57;2.80;;;9.00;99.90;;;;;;5076809;28;20248;-87
2022/02/24 05:34:22;;;;;;;11.43;2.80;;;8.90;99.90;;;;;;5075443;28;20168;-88
2022/02/24 05:36:49;;;;;;;10.07;3.27;;;8.90;99.90;;;;;;5075573;28;20210;-87
2022/02/24 05:39:16;;;;;;;10.87;3.13;;;8.90;99.90;;;;;;5075562;28;20156;-87
2022/02/24 05:41:42;;;;;;;8.03;2.50;;;8.90;99.90;;;;;;5075721;28;20194;-87
2022/02/24 05:44:10;;;;;;;9.50;2.30;;;8.90;99.90;;;;;;5083455;28;20204;-87
2022/02/24 05:46:36;;;;;;;13.03;2.70;;;8.80;99.90;;;;;;5095860;28;20203;-87
2022/02/24 05:49:02;;;;;;;7.27;2.80;;;8.70;99.90;;;;;;5095484;28;20164;-86
2022/02/24 05:51:31;;;;;;;5.27;2.00;;;8.70;99.90;;;;;;5096755;28;20164;-86
2022/02/24 05:53:59;;;;;;;7.57;2.20;;;8.80;99.90;;;;;;5089396;28;20660;-86
2022/02/24 05:56:27;;;;;;;16.00;2.27;;;8.80;99.90;;;;;;5095251;28;20204;-87
2022/02/24 05:58:54;;;;;;;10.87;1.80;;;8.90;99.90;;;;;;5095583;28;20197;-87
2022/02/24 06:01:23;;;;;;;11.97;3.20;;;8.90;99.90;;;;;;5096445;28;20542;-86
2022/02/24 06:03:49;;;;;;;12.57;2.80;;;8.80;99.90;;;;;;5095290;28;20175;-87
2022/02/24 06:06:15;;;;;;;12.43;2.20;;;8.80;99.90;;;;;;5095451;28;20169;-86
2022/02/24 06:08:44;;;;;;;12.60;2.37;;;8.90;99.90;;;;;;5095191;28;20686;-87
2022/02/24 06:11:10;;;;;;;10.53;2.07;;;8.90;99.90;;;;;;5095099;28;20224;-87
2022/02/24 06:13:35;;;;;;;11.73;2.20;;;8.80;99.90;;;;;;5095118;28;20218;-86
2022/02/24 06:16:01;;;;;;;8.87;2.13;;;8.90;99.90;;;;;;5095368;28;20302;-85
2022/02/24 06:18:27;;;;;;;11.13;2.00;;;8.80;99.90;;;;;;5094546;28;20225;-87
2022/02/24 06:20:53;;;;;;;10.47;2.00;;;8.90;99.90;;;;;;5090765;28;20177;-87
2022/02/24 06:23:19;;;;;;;11.70;1.80;;;8.90;99.90;;;;;;5075595;28;20236;-86
2022/02/24 06:25:46;;;;;;;10.83;2.87;;;9.00;99.90;;;;;;5074739;28;20163;-86
2022/02/24 06:28:15;;;;;;;7.40;2.93;;;9.00;99.90;;;;;;5074813;28;20704;-85
2022/02/24 06:30:43;;;;;;;9.80;2.17;;;8.90;99.90;;;;;;5074076;28;20641;-86
2022/02/24 06:33:09;;;;;;;9.77;2.47;;;8.90;99.90;;;;;;5074405;28;20169;-86
2022/02/24 06:35:35;;;;;;;9.70;2.00;;;9.00;99.90;;;;;;5074546;28;20224;-86
2022/02/24 06:38:02;;;;;;;14.83;2.93;;;9.00;99.90;;;;;;5074478;28;20180;-87
2022/02/24 06:40:30;;;;;;;7.33;2.23;;;9.00;99.90;;;;;;5074234;28;20211;-84
2022/02/24 06:42:57;;;;;;;10.60;2.47;;;8.90;99.90;;;;;;5074490;28;20161;-85
2022/02/24 06:45:23;;;;;;;9.03;2.57;;;8.90;99.90;;;;;;5074065;28;20170;-86
2022/02/24 06:47:49;;;;;;;14.23;3.23;;;8.80;99.90;;;;;;5073508;28;20222;-86
2022/02/24 06:50:15;;;;;;;13.50;3.43;;;8.80;99.90;;;;;;5090710;28;20263;-86
2022/02/24 06:52:42;;;;;;;13.50;2.33;;;8.90;99.90;;;;;;5084999;28;20231;-85
2022/02/24 06:55:10;;;;;;;10.13;2.53;;;8.90;99.90;;;;;;5079330;28;20171;-86
2022/02/24 06:57:45;;;;;;;10.20;2.33;;;8.90;99.90;;;;;;5095535;28;20161;-86
2022/02/24 07:00:12;;;;;;;8.53;2.30;;;8.90;99.90;;;;;;5093341;28;20160;-85
2022/02/24 07:02:43;;;;;;;6.77;2.50;;;8.90;99.90;;;;;;5094178;28;20170;-87
2022/02/24 07:05:11;;;;;;;11.70;2.30;;;8.80;99.90;;;;;;5095343;28;20149;-87
2022/02/24 07:07:37;;;;;;;8.93;2.23;;;8.80;99.90;;;;;;5094013;28;20612;-85
2022/02/24 07:10:08;;;;;;;12.87;2.60;;;8.90;99.90;;;;;;5094229;28;20165;-86
2022/02/24 07:12:36;;;;;;;11.33;2.97;;;8.90;99.90;;;;;;5093943;28;20191;-86
2022/02/24 07:15:03;;;;;;;9.00;2.53;;;9.00;99.90;;;;;;5093958;28;20164;-85
2022/02/24 07:17:29;;;;;;;11.23;2.67;;;9.00;99.90;;;;;;5093445;28;20187;-85
2022/02/24 07:19:56;;;;;;;11.97;2.93;;;9.00;99.90;;;;;;5093722;28;20178;-85
2022/02/24 07:22:23;;;;;;;9.23;2.90;;;8.80;99.90;;;;;;5093682;28;20220;-84
2022/02/24 07:24:49;;;;;;;12.93;2.03;;;8.90;99.90;;;;;;5094041;28;20269;-85
2022/02/24 07:27:14;;;;;;;11.60;2.33;;;9.00;99.90;;;;;;5093746;28;20186;-85
2022/02/24 07:29:43;;;;;;;6.63;1.93;;;9.00;99.90;;;;;;5086394;28;20262;-84
2022/02/24 07:32:10;;;;;;;11.90;2.37;;;9.10;99.90;;;;;;5073353;28;20162;-84
2022/02/24 07:34:37;;;;;;;14.40;4.60;;;9.00;99.90;;;;;;5073336;28;20173;-86
2022/02/24 07:37:04;;;;;;;12.47;2.50;;;9.20;99.90;;;;;;5073475;28;20204;-85
2022/02/24 07:39:32;;;;;;;12.00;2.50;;;9.20;99.90;;;;;;5072982;28;20617;-85
2022/02/24 07:42:00;;;;;;;12.00;2.20;;;9.30;99.90;;;;;;5072794;28;20158;-85
2022/02/24 07:44:26;;;;;;;8.77;1.87;;;9.40;99.90;;;;;;5071833;28;20204;-84
2022/02/24 07:47:01;;;;;;;6.70;1.60;;;9.70;99.90;;;;;;5080079;28;20182;-96
2022/02/24 07:49:28;;;;;;;11.60;2.10;;;9.60;99.90;;;;;;5072708;28;20349;-84
2022/02/24 07:51:54;;;;;;;13.70;1.93;;;9.60;99.90;;;;;;5074141;28;20162;-83
2022/02/24 07:54:22;;;;;;;6.80;1.80;;;9.70;99.90;;;;;;5083722;28;20282;-85
2022/02/24 07:56:52;;;;;;;14.57;2.27;;;9.70;99.90;;;;;;5094190;28;20198;-84
2022/02/24 07:59:18;;;;;;;14.63;2.33;;;9.60;99.90;;;;;;5092578;28;20264;-84
2022/02/24 08:01:45;;;;;;;9.43;2.30;;;9.60;99.90;;;;;;5093216;28;20167;-85
2022/02/24 08:04:11;;;;;;;11.27;2.27;;;9.60;99.90;;;;;;5092838;28;20272;-85
2022/02/24 08:06:38;;;;;;;9.10;1.77;;;9.60;99.90;;;;;;5092850;28;20271;-85
2022/02/24 08:09:09;;;;;;;12.63;1.93;;;9.70;99.90;;;;;;5094229;28;20196;-85
2022/02/24 08:11:35;;;;;;;8.57;1.97;;;9.80;99.90;;;;;;5092853;28;20194;-85
2022/02/24 08:14:03;;;;;;;8.20;2.17;;;9.70;99.90;;;;;;5093838;28;20214;-85
2022/02/24 08:16:29;;;;;;;13.93;2.47;;;9.60;99.90;;;;;;5091823;28;20550;-88
2022/02/24 08:19:00;;;;;;;8.70;2.20;;;9.60;99.90;;;;;;5093877;28;20160;-88
2022/02/24 08:21:26;;;;;;;13.57;2.27;;;9.60;99.90;;;;;;5093994;28;20588;-88
2022/02/24 08:23:54;;;;;;;11.73;2.40;;;9.60;99.90;;;;;;5093079;28;20170;-89
2022/02/24 08:26:20;;;;;;;7.33;2.00;;;9.60;99.90;;;;;;5092837;28;20181;-89
2022/02/24 08:28:46;;;;;;;10.73;2.30;;;9.60;99.90;;;;;;5093933;28;20520;-90
2022/02/24 08:31:12;;;;;;;13.83;2.37;;;9.60;99.90;;;;;;5093880;28;20256;-89
2022/02/24 08:33:37;;;;;;;10.43;2.40;;;9.70;99.90;;;;;;5093902;28;20194;-87
2022/02/24 08:36:03;;;;;;;13.47;2.17;;;9.70;99.90;;;;;;5093808;28;20205;-89
2022/02/24 08:38:28;;;;;;;13.37;3.00;;;9.70;99.90;;;;;;5093695;28;20166;-88
2022/02/24 08:40:54;;;;;;;6.63;2.23;;;9.60;99.90;;;;;;5092497;28;20186;-87
2022/02/24 08:43:22;;;;;;;13.07;2.47;;;9.50;99.90;;;;;;5092750;28;20169;-91
2022/02/24 08:45:50;;;;;;;7.20;1.80;;;9.50;99.90;;;;;;5089403;28;20179;-91
2022/02/24 08:48:16;;;;;;;9.10;2.10;;;9.50;99.90;;;;;;5072638;28;20165;-91
2022/02/24 08:50:45;;;;;;;8.33;2.10;;;9.50;99.90;;;;;;5073788;28;20155;-90
2022/02/24 08:53:11;;;;;;;12.27;2.43;;;9.60;99.90;;;;;;5072305;28;20164;-88
2022/02/24 08:55:37;;;;;;;12.20;2.20;;;9.60;99.90;;;;;;5075775;28;20213;-91
2022/02/24 08:58:05;;;;;;;6.90;1.77;;;9.70;99.90;;;;;;5076041;28;20155;-87
2022/02/24 09:00:30;;;;;;;5.83;1.60;;;9.70;99.90;;;;;;5078320;28;20159;-92
2022/02/24 09:02:56;;;;;;;11.63;2.20;;;9.60;99.90;;;;;;5094655;28;20188;-90
2022/02/24 09:05:22;;;;;;;8.07;2.13;;;9.50;99.90;;;;;;5097504;28;20173;-92
2022/02/24 09:07:48;;;;;;;12.93;2.33;;;9.60;99.90;;;;;;5097159;28;20194;-91
2022/02/24 09:10:15;;;;;;;7.67;2.07;;;9.60;99.90;;;;;;5096427;28;20190;-92
2022/02/24 09:12:40;;;;;;;10.43;2.20;;;9.60;99.90;;;;;;5097134;28;20192;-92
2022/02/24 09:15:06;;;;;;;10.93;2.13;;;9.80;99.90;;;;;;5076602;28;20171;-92
2022/02/24 09:17:34;;;;;;;10.93;2.60;;;9.90;99.90;;;;;;5075562;28;20178;-91
2022/02/24 09:19:59;;;;;;;10.47;2.10;;;10.00;99.90;;;;;;5076064;28;20171;-93
2022/02/24 09:22:25;;;;;;;11.57;2.60;;;10.00;99.90;;;;;;5093225;28;20189;-92
2022/02/24 09:24:51;;;;;;;12.60;2.40;;;9.90;99.90;;;;;;5097236;28;20216;-93
2022/02/24 09:27:16;;;;;;;15.00;3.00;;;10.00;99.90;;;;;;5095624;28;20174;-93
2022/02/24 09:29:42;;;;;;;8.47;2.37;;;10.00;99.90;;;;;;5095383;28;20258;-93
2022/02/24 09:32:07;;;;;;;9.97;2.60;;;10.20;99.90;;;;;;5095596;28;20238;-92
2022/02/24 09:34:33;;;;;;;7.87;2.23;;;10.10;99.90;;;;;;5091107;28;20189;-93
2022/02/24 09:37:00;;;;;;;11.90;2.93;;;10.20;99.90;;;;;;5083145;28;20228;-93
2022/02/24 09:39:25;;;;;;;12.10;3.17;;;10.10;99.90;;;;;;5075274;28;20171;-94
2022/02/24 09:41:51;;;;;;;10.67;2.60;;;10.10;99.90;;;;;;5074970;28;20187;-94
2022/02/24 09:44:17;;;;;;;9.30;2.60;;;10.00;99.90;;;;;;5075621;28;20171;-92
2022/02/24 09:46:43;;;;;;;11.73;2.83;;;9.90;99.90;;;;;;5094776;28;20170;-93
2022/02/24 09:49:10;;;;;;;11.50;2.43;;;10.10;99.90;;;;;;5095755;28;20162;-94
2022/02/24 09:51:36;;;;;;;13.77;2.83;;;10.30;99.90;;;;;;5095192;28;20626;-93
2022/02/24 09:54:02;;;;;;;12.13;2.10;;;10.20;99.90;;;;;;5077316;28;20232;-91
2022/02/24 09:56:31;;;;;;;9.90;2.50;;;10.00;99.90;;;;;;5074231;28;20369;-93
2022/02/24 09:58:58;;;;;;;10.87;2.67;;;9.90;99.90;;;;;;5075072;28;20174;-93
2022/02/24 10:01:25;;;;;;;8.53;2.13;;;9.80;99.90;;;;;;5077914;28;20178;-93
2022/02/24 10:03:59;;;;;;;7.27;2.33;;;9.80;99.90;;;;;;5078436;28;20171;-93
2022/02/24 10:06:36;;;;;;;9.23;2.03;;;9.80;99.90;;;;;;5073839;28;20637;-91
2022/02/24 10:09:02;;;;;;;10.77;2.17;;;9.90;99.90;;;;;;5074722;28;20521;-94
2022/02/24 10:11:28;;;;;;;6.47;1.97;;;9.90;99.90;;;;;;5097371;28;20196;-92
2022/02/24 10:13:57;;;;;;;9.67;1.87;;;9.90;99.90;;;;;;5090121;28;20235;-93
2022/02/24 10:16:23;;;;;;;8.97;1.57;;;9.90;99.90;;;;;;5077673;28;20199;-92
2022/02/24 10:18:49;;;;;;;9.77;2.27;;;9.90;99.90;;;;;;5077681;28;20198;-95
2022/02/24 10:21:18;;;;;;;12.23;1.93;;;9.80;99.90;;;;;;5076686;28;20637;-93
2022/02/24 10:23:45;;;;;;;8.17;1.90;;;9.90;99.90;;;;;;5076603;28;20262;-87
2022/02/24 10:26:13;;;;;;;12.27;1.83;;;9.90;99.90;;;;;;5074975;28;20170;-94
2022/02/24 10:28:50;;;;;;;6.33;1.60;;;10.00;99.90;;;;;;5074254;28;20572;-94
2022/02/24 10:31:20;;;;;;;5.97;1.63;;;10.10;99.90;;;;;;5074865;28;20266;-94
2022/02/24 10:33:51;;;;;;;7.30;1.60;;;10.10;99.90;;;;;;5093947;28;20256;-94
2022/02/24 10:36:17;;;;;;;7.90;1.93;;;10.20;99.90;;;;;;5094529;28;20214;-93
2022/02/24 10:38:57;;;;;;;6.73;1.80;;;10.20;99.90;;;;;;5094311;28;20182;-94
2022/02/24 10:41:34;;;;;;;8.70;1.80;;;10.30;99.90;;;;;;5094507;28;20174;-94
2022/02/24 10:44:13;;;;;;;8.43;2.07;;;10.30;99.90;;;;;;5089925;28;20166;-91
2022/02/24 10:46:39;;;;;;;6.33;1.67;;;10.40;99.90;;;;;;5074290;28;20171;-94
2022/02/24 10:49:05;;;;;;;8.07;1.70;;;10.30;99.90;;;;;;5074025;28;20174;-94
2022/02/24 10:51:32;;;;;;;6.83;1.60;;;10.40;99.90;;;;;;5077783;28;20309;-94
2022/02/24 10:54:10;;;;;;;11.03;1.77;;;10.60;99.90;;;;;;5073796;28;20547;-93
2022/02/24 10:56:38;;;;;;;6.60;2.03;;;10.50;99.90;;;;;;5074023;28;20294;-93
2022/02/24 10:59:04;;;;;;;8.90;1.70;;;10.70;99.90;;;;;;5086159;28;20162;-94
2022/02/24 11:01:30;;;;;;;7.27;1.53;;;11.00;99.90;;;;;;5094231;28;20761;-94
2022/02/24 11:04:00;;;;;;;9.00;2.10;;;11.40;99.90;;;;;;5095182;28;20159;-93
2022/02/24 11:06:28;;;;;;;10.37;3.07;;;11.80;99.90;;;;;;5093981;28;20254;-89
2022/02/24 11:08:55;;;;;;;8.37;2.13;;;12.40;99.90;;;;;;5093935;28;20303;-93
2022/02/24 11:11:22;;;;;;;4.67;1.77;;;12.70;99.90;;;;;;5092119;28;20643;-94
2022/02/24 11:13:50;;;;;;;6.67;1.70;;;13.40;99.90;;;;;;5093857;28;20178;-93
2022/02/24 11:16:17;;;;;;;6.43;1.90;;;14.00;99.90;;;;;;5094161;28;20291;-93
2022/02/24 11:18:44;;;;;;;14.00;1.53;;;13.90;99.30;;;;;;5086672;28;20168;-94
2022/02/24 11:21:16;;;;;;;5.70;2.27;;;13.80;99.80;;;;;;5088322;28;20179;-93
2022/02/24 11:23:44;;;;;;;5.57;1.80;;;14.40;98.70;;;;;;5085733;28;20289;-93
2022/02/24 11:26:27;;;;;;;7.37;1.60;;;14.40;98.30;;;;;;5091634;28;20180;-92
2022/02/24 11:29:27;;;;;;;4.13;1.40;;;14.90;97.50;;;;;;5092575;28;20165;-93
2022/02/24 11:31:52;;;;;;;5.73;1.17;;;15.40;96.50;;;;;;5093734;28;20265;-94
2022/02/24 11:34:38;;;;;;;2.73;0.90;;;15.60;95.80;;;;;;5094504;28;20276;-94
2022/02/24 11:37:24;;;;;;;3.77;1.00;;;16.00;95.50;;;;;;5093031;28;20711;-94
2022/02/24 11:40:00;;;;;;;4.20;1.47;;;16.00;95.20;;;;;;5093457;28;20173;-92
2022/02/24 11:42:28;;;;;;;10.70;2.07;;;15.40;95.70;;;;;;5093474;28;20174;-94
2022/02/24 11:44:54;;;;;;;7.00;1.47;;;14.60;97.10;;;;;;5093143;28;20166;-94
2022/02/24 11:47:22;;;;;;;3.77;1.00;;;14.00;97.90;;;;;;5093405;28;20680;-93
2022/02/24 11:49:53;;;;;;;8.30;1.37;;;13.60;98.70;;;;;;5093336;28;20205;-94
2022/02/24 11:52:31;;;;;;;5.53;1.43;;;13.40;99.00;;;;;;5091540;28;20175;-92
2022/02/24 11:54:58;;;;;;;4.00;1.17;;;13.40;99.40;;;;;;5093460;28;20268;-94
2022/02/24 11:57:29;;;;;;;4.20;1.20;;;13.30;99.20;;;;;;5093401;28;20207;-94
2022/02/24 11:59:57;;;;;;;5.57;1.10;;;13.30;99.40;;;;;;5093185;28;20597;-94
2022/02/24 12:02:50;;;;;;;3.73;1.30;;;13.20;99.90;;;;;;5093291;28;20623;-93
2022/02/24 12:05:26;;;;;;;4.97;1.10;;;13.10;99.90;;;;;;5093775;28;20171;-90
2022/02/24 12:08:03;;;;;;;7.67;1.60;;;13.30;99.80;;;;;;5093099;28;20248;-93
2022/02/24 12:10:39;;;;;;;10.47;1.70;;;13.60;99.60;;;;;;5092955;28;20265;-93
2022/02/24 12:13:25;;;;;;;8.80;1.43;;;13.80;99.20;;;;;;5094039;28;20187;-93
2022/02/24 12:16:15;;;;;;;2.73;1.20;;;13.50;99.50;;;;;;5093465;28;20691;-93
2022/02/24 12:18:42;;;;;;;8.57;1.30;;;13.30;99.90;;;;;;5093720;28;20180;-93
2022/02/24 12:21:34;;;;;;;6.07;1.43;;;13.00;99.90;;;;;;5093994;28;20170;-95
2022/02/24 12:24:05;;;;;;;6.73;1.23;;;12.60;99.90;;;;;;5092365;28;20166;-94
2022/02/24 12:26:42;;;;;;;6.43;1.47;;;12.00;99.90;;;;;;5092613;28;20180;-93
2022/02/24 12:29:29;;;;;;;7.73;1.40;;;11.80;99.90;;;;;;5092225;28;20582;-94
2022/02/24 12:32:03;;;;;;;9.67;1.60;;;11.60;99.90;;;;;;5092534;28;20169;-93
2022/02/24 12:34:30;;;;;;;5.83;1.50;;;11.60;99.90;;;;;;5089375;28;20231;-93
2022/02/24 12:37:08;;;;;;;6.87;1.30;;;11.50;99.90;;;;;;5092542;28;20218;-95
2022/02/24 12:39:35;;;;;;;8.17;1.87;;;11.40;99.90;;;;;;5092611;28;20171;-93
2022/02/24 12:42:02;;;;;;;9.07;2.20;;;11.30;99.90;;;;;;5098169;28;20203;-94
2022/02/24 12:44:28;;;;;;;5.93;1.57;;;11.40;99.90;;;;;;5107566;28;20184;-92
2022/02/24 12:46:53;;;;;;;7.17;2.07;;;11.30;99.90;;;;;;5097395;28;20174;-93
2022/02/24 12:49:19;;;;;;;5.53;2.03;;;11.20;99.90;;;;;;5093708;28;20261;-95
2022/02/24 12:51:46;;;;;;;5.13;1.80;;;11.40;99.90;;;;;;5092131;28;20170;-92